Draffin, Kentucky
Current Conditions -  °F | °C
As of 2:55 AM on Monday 22 Dec 2014 (Local Time) from KPBX Reporting Station
Overcast Overcast  
Wind Chill: 30°   Ceiling: 3900
Heat Index: 35°   Visibility: 10mi
Dew Point: 30°   Wind: 5mph
Humidity: 82%   Direction: 150°SSE
Pressure: 30.07"   Gusts: NA
Location:  37.3089°N, 82.3418°W
Report Text: KPBX 220755Z AUTO 15004KT 10SM OVC039 01/M01 A3007 RMK AO2 T00141013
Loading
Personal Weather Stations






























Interactive Weather Map New forecast layout! Learn more

10-Day Weather Forecast

Advertisements
Track Severe Weather on mobile